sensor_id;sensor_type;location;lat;lon;timestamp;pressure;altitude;pressure_sealevel;temperature;humidity
58295;BME280;45705;55.592;37.460;2022-12-05T00:00:12;101985.22;;;-11.43;91.89
58295;BME280;45705;55.592;37.460;2022-12-05T00:02:37;101969.56;;;-11.59;91.63
58295;BME280;45705;55.592;37.460;2022-12-05T00:05:03;101976.88;;;-11.50;90.87
58295;BME280;45705;55.592;37.460;2022-12-05T00:07:29;101976.34;;;-11.55;90.89
58295;BME280;45705;55.592;37.460;2022-12-05T00:09:55;101991.97;;;-11.54;91.21
58295;BME280;45705;55.592;37.460;2022-12-05T00:12:20;101989.91;;;-11.49;92.08
58295;BME280;45705;55.592;37.460;2022-12-05T00:14:46;101996.09;;;-11.64;91.69
58295;BME280;45705;55.592;37.460;2022-12-05T00:17:12;101981.84;;;-11.60;91.48
58295;BME280;45705;55.592;37.460;2022-12-05T00:19:38;101980.91;;;-11.73;91.67
58295;BME280;45705;55.592;37.460;2022-12-05T00:22:04;101978.09;;;-11.56;92.15
58295;BME280;45705;55.592;37.460;2022-12-05T00:24:29;101982.06;;;-11.63;92.17
58295;BME280;45705;55.592;37.460;2022-12-05T00:26:55;101986.38;;;-11.76;92.36
58295;BME280;45705;55.592;37.460;2022-12-05T00:29:21;101980.34;;;-11.64;91.88
58295;BME280;45705;55.592;37.460;2022-12-05T00:31:46;101982.69;;;-11.59;91.17
58295;BME280;45705;55.592;37.460;2022-12-05T00:34:12;101973.59;;;-11.82;91.47
58295;BME280;45705;55.592;37.460;2022-12-05T00:36:38;101977.84;;;-11.94;92.36
58295;BME280;45705;55.592;37.460;2022-12-05T00:39:07;101973.41;;;-11.79;92.09
58295;BME280;45705;55.592;37.460;2022-12-05T00:41:33;101969.50;;;-11.72;91.73
58295;BME280;45705;55.592;37.460;2022-12-05T00:44:00;101976.22;;;-11.82;91.64
58295;BME280;45705;55.592;37.460;2022-12-05T00:46:28;101959.28;;;-11.91;91.89
58295;BME280;45705;55.592;37.460;2022-12-05T00:48:55;101967.59;;;-11.84;91.47
58295;BME280;45705;55.592;37.460;2022-12-05T00:51:30;101965.00;;;-11.70;91.56
58295;BME280;45705;55.592;37.460;2022-12-05T00:54:01;101956.75;;;-11.78;91.22
58295;BME280;45705;55.592;37.460;2022-12-05T00:56:28;101956.69;;;-11.91;91.68
58295;BME280;45705;55.592;37.460;2022-12-05T00:58:55;101959.84;;;-12.00;92.48
58295;BME280;45705;55.592;37.460;2022-12-05T01:03:53;101966.28;;;-11.77;91.83
58295;BME280;45705;55.592;37.460;2022-12-05T01:06:21;101957.72;;;-11.94;92.01
58295;BME280;45705;55.592;37.460;2022-12-05T01:08:47;101958.63;;;-11.80;92.00
58295;BME280;45705;55.592;37.460;2022-12-05T01:11:15;101955.94;;;-11.93;91.99
58295;BME280;45705;55.592;37.460;2022-12-05T01:13:42;101953.97;;;-11.90;91.46
58295;BME280;45705;55.592;37.460;2022-12-05T01:18:54;101940.59;;;-11.86;91.77
58295;BME280;45705;55.592;37.460;2022-12-05T01:21:20;101935.03;;;-11.95;91.35
58295;BME280;45705;55.592;37.460;2022-12-05T01:23:46;101934.28;;;-11.97;91.54
58295;BME280;45705;55.592;37.460;2022-12-05T01:26:14;101932.72;;;-11.86;91.31
58295;BME280;45705;55.592;37.460;2022-12-05T01:28:40;101929.38;;;-11.74;91.40
58295;BME280;45705;55.592;37.460;2022-12-05T01:33:55;101930.31;;;-12.04;91.30
58295;BME280;45705;55.592;37.460;2022-12-05T01:36:22;101926.56;;;-12.00;91.85
58295;BME280;45705;55.592;37.460;2022-12-05T01:38:48;101920.09;;;-11.80;91.54
58295;BME280;45705;55.592;37.460;2022-12-05T01:41:17;101916.81;;;-11.83;89.98
58295;BME280;45705;55.592;37.460;2022-12-05T01:44:03;101918.88;;;-11.74;90.66
58295;BME280;45705;55.592;37.460;2022-12-05T01:46:34;101915.97;;;-11.84;90.69
58295;BME280;45705;55.592;37.460;2022-12-05T01:49:19;101911.72;;;-11.99;91.16
58295;BME280;45705;55.592;37.460;2022-12-05T01:51:48;101912.72;;;-12.02;90.77
58295;BME280;45705;55.592;37.460;2022-12-05T01:54:15;101905.25;;;-11.94;91.14
58295;BME280;45705;55.592;37.460;2022-12-05T01:56:45;101902.22;;;-12.02;91.31
58295;BME280;45705;55.592;37.460;2022-12-05T01:59:13;101894.34;;;-11.88;90.34
58295;BME280;45705;55.592;37.460;2022-12-05T02:01:39;101911.06;;;-12.03;90.67
58295;BME280;45705;55.592;37.460;2022-12-05T02:04:05;101906.72;;;-12.18;91.35
58295;BME280;45705;55.592;37.460;2022-12-05T02:06:32;101897.63;;;-12.27;92.42
58295;BME280;45705;55.592;37.460;2022-12-05T02:08:57;101907.69;;;-12.05;91.71
58295;BME280;45705;55.592;37.460;2022-12-05T02:11:25;101900.38;;;-12.29;92.07
58295;BME280;45705;55.592;37.460;2022-12-05T02:14:18;101912.94;;;-12.05;91.34
58295;BME280;45705;55.592;37.460;2022-12-05T02:38:31;101893.59;;;-12.04;91.37
58295;BME280;45705;55.592;37.460;2022-12-05T02:43:47;101885.75;;;-11.90;89.32
58295;BME280;45705;55.592;37.460;2022-12-05T02:46:21;101886.31;;;-11.99;89.33
58295;BME280;45705;55.592;37.460;2022-12-05T02:48:49;101876.84;;;-12.16;89.95
58295;BME280;45705;55.592;37.460;2022-12-05T02:51:18;101883.69;;;-12.13;90.87
58295;BME280;45705;55.592;37.460;2022-12-05T02:53:45;101883.88;;;-12.16;90.65
58295;BME280;45705;55.592;37.460;2022-12-05T02:56:13;101869.63;;;-12.12;90.11
58295;BME280;45705;55.592;37.460;2022-12-05T02:58:50;101875.25;;;-12.18;90.23
58295;BME280;45705;55.592;37.460;2022-12-05T03:01:18;101871.41;;;-11.98;89.82
58295;BME280;45705;55.592;37.460;2022-12-05T03:03:46;101861.78;;;-12.26;90.41
58295;BME280;45705;55.592;37.460;2022-12-05T03:06:15;101863.59;;;-11.85;90.57
58295;BME280;45705;55.592;37.460;2022-12-05T03:08:55;101865.53;;;-12.31;90.26
58295;BME280;45705;55.592;37.460;2022-12-05T03:11:22;101875.63;;;-12.24;90.69
58295;BME280;45705;55.592;37.460;2022-12-05T03:13:51;101864.66;;;-12.45;91.42
58295;BME280;45705;55.592;37.460;2022-12-05T03:19:24;101860.91;;;-12.27;90.61
58295;BME280;45705;55.592;37.460;2022-12-05T03:22:05;101861.22;;;-12.46;91.54
58295;BME280;45705;55.592;37.460;2022-12-05T03:24:34;101857.72;;;-12.46;91.85
58295;BME280;45705;55.592;37.460;2022-12-05T03:29:58;101844.53;;;-12.59;92.63
58295;BME280;45705;55.592;37.460;2022-12-05T03:38:12;101857.63;;;-12.45;92.09
58295;BME280;45705;55.592;37.460;2022-12-05T03:43:27;101840.50;;;-12.65;91.60
58295;BME280;45705;55.592;37.460;2022-12-05T03:46:10;101837.22;;;-12.54;92.34
58295;BME280;45705;55.592;37.460;2022-12-05T03:48:46;101835.16;;;-12.49;92.59
58295;BME280;45705;55.592;37.460;2022-12-05T03:51:18;101835.06;;;-12.62;91.93
58295;BME280;45705;55.592;37.460;2022-12-05T03:53:50;101828.59;;;-12.56;92.26
58295;BME280;45705;55.592;37.460;2022-12-05T03:56:24;101823.47;;;-12.43;91.93
58295;BME280;45705;55.592;37.460;2022-12-05T03:59:14;101833.88;;;-12.42;91.05
58295;BME280;45705;55.592;37.460;2022-12-05T04:01:42;101821.13;;;-12.62;92.54
58295;BME280;45705;55.592;37.460;2022-12-05T04:04:18;101819.34;;;-12.33;91.46
58295;BME280;45705;55.592;37.460;2022-12-05T04:06:48;101827.78;;;-12.57;91.33
58295;BME280;45705;55.592;37.460;2022-12-05T04:09:19;101819.63;;;-12.52;91.37
58295;BME280;45705;55.592;37.460;2022-12-05T04:12:02;101817.19;;;-12.41;91.23
58295;BME280;45705;55.592;37.460;2022-12-05T04:14:40;101818.69;;;-12.65;91.83
58295;BME280;45705;55.592;37.460;2022-12-05T04:17:10;101807.84;;;-12.59;91.27
58295;BME280;45705;55.592;37.460;2022-12-05T04:19:46;101807.63;;;-12.71;92.16
58295;BME280;45705;55.592;37.460;2022-12-05T04:22:31;101810.47;;;-12.59;91.83
58295;BME280;45705;55.592;37.460;2022-12-05T04:24:59;101810.94;;;-12.67;92.02
58295;BME280;45705;55.592;37.460;2022-12-05T04:27:47;101812.41;;;-12.63;91.95
58295;BME280;45705;55.592;37.460;2022-12-05T04:30:21;101812.50;;;-12.79;92.40
58295;BME280;45705;55.592;37.460;2022-12-05T04:33:09;101803.31;;;-12.72;92.49
58295;BME280;45705;55.592;37.460;2022-12-05T04:35:49;101795.28;;;-12.83;92.92
58295;BME280;45705;55.592;37.460;2022-12-05T04:38:24;101794.53;;;-12.85;93.41
58295;BME280;45705;55.592;37.460;2022-12-05T04:41:01;101799.88;;;-12.86;93.18
58295;BME280;45705;55.592;37.460;2022-12-05T04:43:29;101790.03;;;-12.83;93.39
58295;BME280;45705;55.592;37.460;2022-12-05T04:45:56;101793.63;;;-12.55;92.05
58295;BME280;45705;55.592;37.460;2022-12-05T04:48:25;101785.94;;;-12.58;92.23
58295;BME280;45705;55.592;37.460;2022-12-05T04:50:53;101796.22;;;-12.41;91.40
58295;BME280;45705;55.592;37.460;2022-12-05T04:53:20;101788.94;;;-12.64;91.98
58295;BME280;45705;55.592;37.460;2022-12-05T04:55:50;101771.25;;;-12.75;91.52
58295;BME280;45705;55.592;37.460;2022-12-05T04:58:20;101789.31;;;-12.71;91.11
58295;BME280;45705;55.592;37.460;2022-12-05T05:06:00;101779.38;;;-12.51;90.38
58295;BME280;45705;55.592;37.460;2022-12-05T05:08:27;101783.69;;;-12.64;91.06
58295;BME280;45705;55.592;37.460;2022-12-05T05:11:05;101775.81;;;-12.79;91.64
58295;BME280;45705;55.592;37.460;2022-12-05T05:13:33;101783.69;;;-12.79;91.46
58295;BME280;45705;55.592;37.460;2022-12-05T05:15:59;101785.56;;;-12.66;91.31
58295;BME280;45705;55.592;37.460;2022-12-05T05:18:25;101783.31;;;-12.73;90.78
58295;BME280;45705;55.592;37.460;2022-12-05T05:20:50;101787.03;;;-12.91;91.44
58295;BME280;45705;55.592;37.460;2022-12-05T05:23:16;101787.22;;;-12.80;91.98
58295;BME280;45705;55.592;37.460;2022-12-05T05:25:42;101784.06;;;-12.71;91.53
58295;BME280;45705;55.592;37.460;2022-12-05T05:28:08;101789.00;;;-12.80;91.25
58295;BME280;45705;55.592;37.460;2022-12-05T05:30:33;101776.41;;;-12.59;90.25
58295;BME280;45705;55.592;37.460;2022-12-05T05:32:59;101791.91;;;-12.56;90.45
58295;BME280;45705;55.592;37.460;2022-12-05T05:35:25;101792.66;;;-12.69;89.85
58295;BME280;45705;55.592;37.460;2022-12-05T05:37:51;101791.72;;;-12.82;90.45
58295;BME280;45705;55.592;37.460;2022-12-05T05:40:17;101786.34;;;-12.50;90.44
58295;BME280;45705;55.592;37.460;2022-12-05T05:42:47;101790.50;;;-12.76;90.33
58295;BME280;45705;55.592;37.460;2022-12-05T05:45:14;101786.22;;;-12.63;90.62
58295;BME280;45705;55.592;37.460;2022-12-05T05:47:40;101774.13;;;-12.37;89.03
58295;BME280;45705;55.592;37.460;2022-12-05T05:50:06;101766.31;;;-12.65;89.58
58295;BME280;45705;55.592;37.460;2022-12-05T05:52:34;101762.81;;;-12.80;89.71
58295;BME280;45705;55.592;37.460;2022-12-05T05:55:00;101767.03;;;-12.78;89.48
58295;BME280;45705;55.592;37.460;2022-12-05T05:57:27;101761.41;;;-12.72;89.91
58295;BME280;45705;55.592;37.460;2022-12-05T05:59:52;101763.09;;;-12.56;89.77
58295;BME280;45705;55.592;37.460;2022-12-05T06:02:18;101769.56;;;-12.48;89.15
58295;BME280;45705;55.592;37.460;2022-12-05T06:04:44;101758.53;;;-12.38;88.01
58295;BME280;45705;55.592;37.460;2022-12-05T06:07:09;101761.94;;;-12.23;86.66
58295;BME280;45705;55.592;37.460;2022-12-05T06:09:35;101758.44;;;-12.51;86.86
58295;BME280;45705;55.592;37.460;2022-12-05T06:12:01;101749.97;;;-12.27;85.87
58295;BME280;45705;55.592;37.460;2022-12-05T06:14:27;101767.97;;;-12.36;86.30
58295;BME280;45705;55.592;37.460;2022-12-05T06:16:52;101763.56;;;-12.50;87.60
58295;BME280;45705;55.592;37.460;2022-12-05T06:19:18;101764.25;;;-11.77;84.42
58295;BME280;45705;55.592;37.460;2022-12-05T06:21:44;101758.66;;;-11.18;80.94
58295;BME280;45705;55.592;37.460;2022-12-05T06:24:10;101752.38;;;-11.03;78.20
58295;BME280;45705;55.592;37.460;2022-12-05T06:26:35;101752.69;;;-10.95;76.98
58295;BME280;45705;55.592;37.460;2022-12-05T06:29:01;101739.66;;;-10.71;75.95
58295;BME280;45705;55.592;37.460;2022-12-05T06:31:27;101745.22;;;-10.88;75.19
58295;BME280;45705;55.592;37.460;2022-12-05T06:33:59;101743.44;;;-10.75;75.12
58295;BME280;45705;55.592;37.460;2022-12-05T06:36:25;101737.75;;;-10.56;74.62
58295;BME280;45705;55.592;37.460;2022-12-05T06:38:52;101745.00;;;-10.46;73.34
58295;BME280;45705;55.592;37.460;2022-12-05T06:41:19;101747.22;;;-10.79;74.30
58295;BME280;45705;55.592;37.460;2022-12-05T06:43:45;101739.38;;;-10.29;72.33
58295;BME280;45705;55.592;37.460;2022-12-05T06:46:12;101745.63;;;-10.06;72.50
58295;BME280;45705;55.592;37.460;2022-12-05T06:48:38;101741.13;;;-10.66;72.12
58295;BME280;45705;55.592;37.460;2022-12-05T06:51:04;101746.59;;;-10.70;72.91
58295;BME280;45705;55.592;37.460;2022-12-05T06:53:31;101744.34;;;-10.37;71.79
58295;BME280;45705;55.592;37.460;2022-12-05T06:56:02;101745.34;;;-10.64;71.39
58295;BME280;45705;55.592;37.460;2022-12-05T06:58:28;101737.97;;;-10.97;73.47
58295;BME280;45705;55.592;37.460;2022-12-05T07:00:54;101743.66;;;-10.91;73.19
58295;BME280;45705;55.592;37.460;2022-12-05T07:03:39;101727.69;;;-11.00;74.12
58295;BME280;45705;55.592;37.460;2022-12-05T07:06:06;101734.72;;;-10.88;72.97
58295;BME280;45705;55.592;37.460;2022-12-05T07:08:33;101723.03;;;-10.58;72.99
58295;BME280;45705;55.592;37.460;2022-12-05T07:10:59;101729.69;;;-10.28;70.71
58295;BME280;45705;55.592;37.460;2022-12-05T07:13:25;101729.66;;;-10.78;71.38
58295;BME280;45705;55.592;37.460;2022-12-05T07:15:51;101737.66;;;-10.17;70.33
58295;BME280;45705;55.592;37.460;2022-12-05T07:18:17;101736.06;;;-10.44;70.60
58295;BME280;45705;55.592;37.460;2022-12-05T07:20:43;101727.34;;;-10.20;70.27
58295;BME280;45705;55.592;37.460;2022-12-05T07:23:10;101739.59;;;-10.32;69.75
58295;BME280;45705;55.592;37.460;2022-12-05T07:25:40;101746.13;;;-10.38;70.75
58295;BME280;45705;55.592;37.460;2022-12-05T07:28:06;101708.94;;;-10.57;71.04
58295;BME280;45705;55.592;37.460;2022-12-05T07:30:32;101731.59;;;-10.31;70.20
58295;BME280;45705;55.592;37.460;2022-12-05T07:32:58;101724.50;;;-10.54;70.36
58295;BME280;45705;55.592;37.460;2022-12-05T07:35:24;101717.78;;;-10.84;72.02
58295;BME280;45705;55.592;37.460;2022-12-05T07:37:49;101719.47;;;-11.21;72.70
58295;BME280;45705;55.592;37.460;2022-12-05T07:40:15;101716.66;;;-11.18;73.83
58295;BME280;45705;55.592;37.460;2022-12-05T07:42:41;101716.97;;;-11.10;74.46
58295;BME280;45705;55.592;37.460;2022-12-05T07:45:07;101719.25;;;-11.05;74.84
58295;BME280;45705;55.592;37.460;2022-12-05T07:47:33;101720.97;;;-11.04;74.95
58295;BME280;45705;55.592;37.460;2022-12-05T07:49:59;101711.50;;;-10.94;73.76
58295;BME280;45705;55.592;37.460;2022-12-05T07:52:24;101720.53;;;-11.24;74.91
58295;BME280;45705;55.592;37.460;2022-12-05T07:54:50;101713.38;;;-11.22;75.88
58295;BME280;45705;55.592;37.460;2022-12-05T07:57:16;101716.50;;;-11.17;75.75
58295;BME280;45705;55.592;37.460;2022-12-05T07:59:41;101705.69;;;-10.99;75.04
58295;BME280;45705;55.592;37.460;2022-12-05T08:02:08;101703.28;;;-11.28;75.76
58295;BME280;45705;55.592;37.460;2022-12-05T08:04:33;101704.34;;;-11.18;75.42
58295;BME280;45705;55.592;37.460;2022-12-05T08:06:59;101705.19;;;-11.04;75.58
58295;BME280;45705;55.592;37.460;2022-12-05T08:09:26;101700.38;;;-11.11;74.53
58295;BME280;45705;55.592;37.460;2022-12-05T08:11:52;101701.34;;;-11.52;76.94
58295;BME280;45705;55.592;37.460;2022-12-05T08:14:17;101691.75;;;-10.87;75.95
58295;BME280;45705;55.592;37.460;2022-12-05T08:16:43;101683.00;;;-11.00;75.07
58295;BME280;45705;55.592;37.460;2022-12-05T08:19:10;101690.47;;;-10.94;75.60
58295;BME280;45705;55.592;37.460;2022-12-05T08:21:38;101693.41;;;-11.37;76.06
58295;BME280;45705;55.592;37.460;2022-12-05T08:24:05;101683.50;;;-11.46;77.82
58295;BME280;45705;55.592;37.460;2022-12-05T08:26:31;101682.16;;;-11.39;77.02
58295;BME280;45705;55.592;37.460;2022-12-05T08:29:03;101674.09;;;-11.23;77.19
58295;BME280;45705;55.592;37.460;2022-12-05T08:31:31;101678.28;;;-11.21;77.22
58295;BME280;45705;55.592;37.460;2022-12-05T08:33:58;101670.69;;;-11.38;78.09
58295;BME280;45705;55.592;37.460;2022-12-05T08:36:24;101671.34;;;-11.09;77.37
58295;BME280;45705;55.592;37.460;2022-12-05T08:38:55;101665.84;;;-10.80;75.45
58295;BME280;45705;55.592;37.460;2022-12-05T08:41:21;101663.38;;;-11.07;76.13
58295;BME280;45705;55.592;37.460;2022-12-05T08:43:47;101664.78;;;-10.78;76.66
58295;BME280;45705;55.592;37.460;2022-12-05T08:46:13;101665.31;;;-10.73;75.82
58295;BME280;45705;55.592;37.460;2022-12-05T08:48:39;101665.13;;;-10.33;74.48
58295;BME280;45705;55.592;37.460;2022-12-05T08:51:09;101658.94;;;-10.20;74.31
58295;BME280;45705;55.592;37.460;2022-12-05T08:53:36;101656.50;;;-9.86;72.35
58295;BME280;45705;55.592;37.460;2022-12-05T08:56:03;101655.47;;;-10.45;73.17
58295;BME280;45705;55.592;37.460;2022-12-05T08:58:30;101653.66;;;-10.68;74.61
58295;BME280;45705;55.592;37.460;2022-12-05T09:01:07;101655.72;;;-10.61;75.43
58295;BME280;45705;55.592;37.460;2022-12-05T09:03:33;101650.84;;;-10.17;74.40
58295;BME280;45705;55.592;37.460;2022-12-05T09:06:24;101641.91;;;-10.27;73.99
58295;BME280;45705;55.592;37.460;2022-12-05T09:08:56;101647.28;;;-10.53;75.11
58295;BME280;45705;55.592;37.460;2022-12-05T09:11:28;101634.75;;;-10.25;74.58
58295;BME280;45705;55.592;37.460;2022-12-05T09:13:56;101630.53;;;-10.15;74.69
58295;BME280;45705;55.592;37.460;2022-12-05T09:16:31;101635.00;;;-10.28;75.07
58295;BME280;45705;55.592;37.460;2022-12-05T09:18:57;101625.06;;;-10.36;75.46
58295;BME280;45705;55.592;37.460;2022-12-05T09:21:26;101615.50;;;-10.02;75.14
58295;BME280;45705;55.592;37.460;2022-12-05T09:23:52;101610.31;;;-9.79;73.68
58295;BME280;45705;55.592;37.460;2022-12-05T09:26:20;101604.56;;;-9.73;72.86
58295;BME280;45705;55.592;37.460;2022-12-05T09:28:46;101594.84;;;-9.95;73.12
58295;BME280;45705;55.592;37.460;2022-12-05T09:31:17;101606.00;;;-9.80;73.82
58295;BME280;45705;55.592;37.460;2022-12-05T09:33:43;101603.38;;;-9.80;72.78
58295;BME280;45705;55.592;37.460;2022-12-05T09:36:17;101606.03;;;-10.04;74.09
58295;BME280;45705;55.592;37.460;2022-12-05T09:38:43;101601.69;;;-9.81;73.57
58295;BME280;45705;55.592;37.460;2022-12-05T09:41:33;101604.41;;;-9.59;73.38
58295;BME280;45705;55.592;37.460;2022-12-05T09:45:04;101602.72;;;-9.48;72.56
58295;BME280;45705;55.592;37.460;2022-12-05T09:53:10;101580.94;;;-9.51;72.28
58295;BME280;45705;55.592;37.460;2022-12-05T09:56:01;101573.72;;;-9.60;72.35
58295;BME280;45705;55.592;37.460;2022-12-05T10:04:26;101577.88;;;-8.99;70.81
58295;BME280;45705;55.592;37.460;2022-12-05T10:10:26;101562.72;;;-8.86;69.68
58295;BME280;45705;55.592;37.460;2022-12-05T10:15:41;101542.38;;;-8.95;68.90
58295;BME280;45705;55.592;37.460;2022-12-05T10:21:23;101543.81;;;-8.91;68.98
58295;BME280;45705;55.592;37.460;2022-12-05T10:26:18;101549.31;;;-8.94;70.40
58295;BME280;45705;55.592;37.460;2022-12-05T10:31:25;101539.94;;;-8.64;68.25
58295;BME280;45705;55.592;37.460;2022-12-05T10:34:04;101550.94;;;-8.71;67.61
58295;BME280;45705;55.592;37.460;2022-12-05T10:36:30;101552.94;;;-9.06;68.56
58295;BME280;45705;55.592;37.460;2022-12-05T10:38:57;101547.41;;;-8.92;68.89
58295;BME280;45705;55.592;37.460;2022-12-05T10:41:23;101536.38;;;-8.86;68.29
58295;BME280;45705;55.592;37.460;2022-12-05T10:43:49;101550.06;;;-9.15;69.15
58295;BME280;45705;55.592;37.460;2022-12-05T10:46:16;101526.38;;;-9.15;69.52
58295;BME280;45705;55.592;37.460;2022-12-05T10:48:42;101551.97;;;-8.94;69.04
58295;BME280;45705;55.592;37.460;2022-12-05T10:51:22;101538.06;;;-8.96;67.96
58295;BME280;45705;55.592;37.460;2022-12-05T10:53:50;101537.91;;;-8.72;67.88
58295;BME280;45705;55.592;37.460;2022-12-05T10:56:37;101533.50;;;-8.94;68.01
58295;BME280;45705;55.592;37.460;2022-12-05T10:59:04;101538.78;;;-8.94;68.39
58295;BME280;45705;55.592;37.460;2022-12-05T11:01:30;101531.38;;;-9.12;68.24
58295;BME280;45705;55.592;37.460;2022-12-05T11:04:07;101523.66;;;-8.81;67.27
58295;BME280;45705;55.592;37.460;2022-12-05T11:06:34;101518.06;;;-8.87;67.87
58295;BME280;45705;55.592;37.460;2022-12-05T11:09:22;101520.88;;;-8.68;67.08
58295;BME280;45705;55.592;37.460;2022-12-05T11:14:33;101520.09;;;-9.02;68.52
58295;BME280;45705;55.592;37.460;2022-12-05T11:17:03;101528.38;;;-9.07;68.13
58295;BME280;45705;55.592;37.460;2022-12-05T11:21:56;101518.53;;;-8.94;68.31
58295;BME280;45705;55.592;37.460;2022-12-05T11:27:00;101508.25;;;-9.19;68.15
58295;BME280;45705;55.592;37.460;2022-12-05T11:29:53;101522.63;;;-9.12;68.81
58295;BME280;45705;55.592;37.460;2022-12-05T11:32:22;101511.75;;;-9.19;68.63
58295;BME280;45705;55.592;37.460;2022-12-05T11:34:55;101518.56;;;-9.39;69.01
58295;BME280;45705;55.592;37.460;2022-12-05T11:37:26;101512.09;;;-9.23;69.63
58295;BME280;45705;55.592;37.460;2022-12-05T11:39:54;101501.88;;;-8.94;69.68
58295;BME280;45705;55.592;37.460;2022-12-05T11:45:47;101504.25;;;-8.80;68.06
58295;BME280;45705;55.592;37.460;2022-12-05T11:56:53;101487.66;;;-9.03;69.42
58295;BME280;45705;55.592;37.460;2022-12-05T12:15:56;101465.31;;;-9.54;72.05
58295;BME280;45705;55.592;37.460;2022-12-05T12:18:37;101463.38;;;-9.40;71.97
58295;BME280;45705;55.592;37.460;2022-12-05T12:21:18;101455.50;;;-9.52;72.20
58295;BME280;45705;55.592;37.460;2022-12-05T12:37:55;101437.31;;;-9.66;74.05
58295;BME280;45705;55.592;37.460;2022-12-05T12:50:51;101433.59;;;-9.63;75.64
58295;BME280;45705;55.592;37.460;2022-12-05T12:56:21;101425.09;;;-9.90;76.68
58295;BME280;45705;55.592;37.460;2022-12-05T12:59:03;101413.50;;;-9.87;76.51
58295;BME280;45705;55.592;37.460;2022-12-05T13:01:40;101417.19;;;-9.56;76.15
58295;BME280;45705;55.592;37.460;2022-12-05T13:04:18;101428.69;;;-9.57;76.14
58295;BME280;45705;55.592;37.460;2022-12-05T13:06:55;101424.03;;;-9.64;75.60
58295;BME280;45705;55.592;37.460;2022-12-05T13:09:36;101422.94;;;-9.62;75.20
58295;BME280;45705;55.592;37.460;2022-12-05T13:12:07;101418.16;;;-9.68;75.22
58295;BME280;45705;55.592;37.460;2022-12-05T13:14:38;101409.06;;;-9.64;75.83
58295;BME280;45705;55.592;37.460;2022-12-05T13:17:10;101412.41;;;-9.62;75.86
58295;BME280;45705;55.592;37.460;2022-12-05T13:19:47;101406.69;;;-9.67;76.19
58295;BME280;45705;55.592;37.460;2022-12-05T13:22:17;101396.88;;;-9.65;76.02
58295;BME280;45705;55.592;37.460;2022-12-05T13:24:44;101404.28;;;-9.59;75.88
58295;BME280;45705;55.592;37.460;2022-12-05T13:27:18;101409.22;;;-9.77;75.61
58295;BME280;45705;55.592;37.460;2022-12-05T13:30:16;101408.56;;;-9.58;76.01
58295;BME280;45705;55.592;37.460;2022-12-05T13:32:43;101404.75;;;-9.54;75.77
58295;BME280;45705;55.592;37.460;2022-12-05T13:35:15;101403.56;;;-9.61;75.00
58295;BME280;45705;55.592;37.460;2022-12-05T13:37:47;101390.81;;;-9.33;74.76
58295;BME280;45705;55.592;37.460;2022-12-05T13:40:34;101403.41;;;-9.48;74.91
58295;BME280;45705;55.592;37.460;2022-12-05T13:43:26;101395.16;;;-9.43;74.36
58295;BME280;45705;55.592;37.460;2022-12-05T13:46:06;101400.44;;;-9.11;73.75
58295;BME280;45705;55.592;37.460;2022-12-05T13:48:36;101392.84;;;-9.25;72.87
58295;BME280;45705;55.592;37.460;2022-12-05T13:51:10;101397.09;;;-9.45;73.76
58295;BME280;45705;55.592;37.460;2022-12-05T13:53:41;101393.19;;;-9.19;73.27
58295;BME280;45705;55.592;37.460;2022-12-05T13:58:44;101386.47;;;-9.23;73.27
58295;BME280;45705;55.592;37.460;2022-12-05T14:17:35;101363.69;;;-9.45;74.08
58295;BME280;45705;55.592;37.460;2022-12-05T14:26:17;101359.56;;;-9.26;73.47
58295;BME280;45705;55.592;37.460;2022-12-05T14:34:22;101362.81;;;-9.34;73.38
58295;BME280;45705;55.592;37.460;2022-12-05T14:39:29;101335.72;;;-9.25;72.45
58295;BME280;45705;55.592;37.460;2022-12-05T14:41:59;101341.56;;;-8.89;72.36
58295;BME280;45705;55.592;37.460;2022-12-05T14:44:27;101335.22;;;-9.19;72.58
58295;BME280;45705;55.592;37.460;2022-12-05T14:46:58;101330.94;;;-9.31;73.14
58295;BME280;45705;55.592;37.460;2022-12-05T14:49:56;101324.50;;;-9.06;72.13
58295;BME280;45705;55.592;37.460;2022-12-05T14:52:28;101321.63;;;-9.35;73.32
58295;BME280;45705;55.592;37.460;2022-12-05T14:55:11;101330.13;;;-9.32;73.00
58295;BME280;45705;55.592;37.460;2022-12-05T14:57:46;101320.06;;;-9.26;73.04
58295;BME280;45705;55.592;37.460;2022-12-05T15:00:20;101314.22;;;-9.09;73.01
58295;BME280;45705;55.592;37.460;2022-12-05T15:02:49;101309.59;;;-9.17;73.11
58295;BME280;45705;55.592;37.460;2022-12-05T15:08:13;101306.31;;;-9.41;74.51
58295;BME280;45705;55.592;37.460;2022-12-05T15:10:41;101307.53;;;-9.45;74.84
58295;BME280;45705;55.592;37.460;2022-12-05T15:13:16;101300.44;;;-9.34;74.15
58295;BME280;45705;55.592;37.460;2022-12-05T15:15:54;101295.63;;;-9.07;73.57
58295;BME280;45705;55.592;37.460;2022-12-05T15:18:39;101306.63;;;-9.02;73.54
58295;BME280;45705;55.592;37.460;2022-12-05T15:23:55;101293.31;;;-9.22;74.53
58295;BME280;45705;55.592;37.460;2022-12-05T15:31:47;101260.06;;;-9.55;75.44
58295;BME280;45705;55.592;37.460;2022-12-05T15:34:49;101287.47;;;-9.25;75.01
58295;BME280;45705;55.592;37.460;2022-12-05T15:42:45;101289.34;;;-9.48;75.94
58295;BME280;45705;55.592;37.460;2022-12-05T15:53:23;101282.88;;;-9.44;75.84
58295;BME280;45705;55.592;37.460;2022-12-05T15:55:47;101261.16;;;-9.37;75.45
58295;BME280;45705;55.592;37.460;2022-12-05T15:58:53;101268.78;;;-9.55;76.85
58295;BME280;45705;55.592;37.460;2022-12-05T16:01:22;101268.59;;;-9.63;76.58
58295;BME280;45705;55.592;37.460;2022-12-05T16:04:20;101251.09;;;-9.64;76.68
58295;BME280;45705;55.592;37.460;2022-12-05T16:06:50;101266.19;;;-9.66;77.26
58295;BME280;45705;55.592;37.460;2022-12-05T16:09:19;101261.13;;;-9.58;77.21